Delong, Illinois
Current Conditions -  °F | °C
As of 3:55 AM on Sunday 23 Nov 2014 (Local Time) from KGBG Reporting Station
Overcast Overcast  
Wind Chill: 45°   Ceiling: 3400
Heat Index: 49°   Visibility: 10mi
Dew Point: 47°   Wind: 8mph
Humidity: 92%   Direction: 150°SSE
Pressure: 29.71"   Gusts: NA
Location:  40.8742°N, 90.157°W
Report Text: KGBG 230955Z AUTO 15007KT 10SM SCT010 OVC034 09/08 A2971 RMK AO2 T00940082
Loading
Personal Weather Stations






























Interactive Weather Map New forecast layout! Learn more

10-Day Weather Forecast

Advertisements
Track Severe Weather on mobile